• Join FlightAware (Why Join?)
  • Login
  • US Flag 
10:24PM EDT


 

Airport Tracker/Info


-or-


 

Live Flight TrackerFlight Track Log ✈ QLK109D ✈ 28-Aug-2013 ✈ YCFS - YSSY / SYD

Flight Track Log - Related Links

Times and Time Zones

All times are in EDT time to prevent confusion due to time zone crossing. See the QLK109D flight status page for this flight to view local times or setup timezone preferences in your user account.

Time Position Orientation Groundspeed Altitude Reporting Facility
EDT Latitude Longitude Course Direction KTS MPH feet Rate Location/Type
11:13PM -30.3206 153.1163 212° Southwest 22,000  Level Aus ATC (Calculated)
11:14PM -30.3596 153.0791 207° Southwest 22,000 -6,540 Level Aus ATC (Calculated)
11:15PM -30.4208 153.0425 217° Southwest 212 244 4,500 -6,780 Descending Aus ATC (RADAR)
11:16PM -30.4482 153.0190 217° Southwest 212 244 5,900 2,580 Climbing Aus ATC (RADAR)
11:17PM -30.4873 152.9850 217° Southwest 208 239 8,200 2,340 Climbing Aus ATC (RADAR)
11:18PM -30.5284 152.9518 215° Southwest 217 250 9,800 2,100 Climbing Aus ATC (RADAR)
11:18PM -30.5578 152.9272 216° Southwest 222 255 11,200 2,280 Climbing Aus ATC (RADAR)
11:19PM -30.6008 152.8931 214° Southwest 226 260 13,100 1,740 Climbing Aus ATC (RADAR)
11:21PM -30.6842 152.8246 215° Southwest 235 270 15,600 1,380 Climbing Aus ATC (RADAR)
11:21PM -30.7135 152.8004 215° Southwest 253 291 16,100 1,500 Climbing Aus ATC (RADAR)
11:22PM -30.7439 152.7760 215° Southwest 259 298 17,100 1,920 Climbing Aus ATC (RADAR)
11:22PM -30.7767 152.7497 215° Southwest 245 282 18,200 1,680 Climbing Aus ATC (RADAR)
11:23PM -30.8085 152.7239 215° Southwest 238 274 19,100 1,380 Climbing Aus ATC (RADAR)
11:23PM -30.8355 152.7013 216° Southwest 240 276 19,700 1,440 Climbing Aus ATC (RADAR)
11:24PM -30.8712 152.6718 215° Southwest 235 270 20,800 1,560 Climbing Aus ATC (RADAR)
11:25PM -30.9049 152.6438 215° Southwest 222 255 21,800 660 Climbing Aus ATC (RADAR)
11:26PM -30.9760 152.5841 216° Southwest 249 287 22,200 60 Climbing Aus ATC (RADAR)
11:27PM -31.0384 152.5342 214° Southwest 275 316 22,000 -420 Descending Aus ATC (RADAR)
11:28PM -31.0773 152.5018 215° Southwest 291 335 21,600 -780 Descending Aus ATC (RADAR)
11:28PM -31.1167 152.4693 215° Southwest 297 342 21,100 -780 Descending Aus ATC (RADAR)
11:29PM -31.1741 152.4215 215° Southwest 303 349 20,500 -540 Descending Aus ATC (RADAR)
11:30PM -31.2440 152.3635 215° Southwest 310 357 20,200 -180 Descending Aus ATC (RADAR)
11:31PM -31.3252 152.2950 216° Southwest 311 358 20,200  Level Aus ATC (RADAR)
11:32PM -31.3895 152.2419 215° Southwest 310 357 20,200  Level Aus ATC (RADAR)
11:33PM -31.4420 152.1982 215° Southwest 310 357 20,200  Level Aus ATC (RADAR)
11:33PM -31.4827 152.1640 216° Southwest 310 357 20,200  Level Aus ATC (RADAR)
11:34PM -31.5418 152.1151 215° Southwest 312 359 20,200  Level Aus ATC (RADAR)
11:35PM -31.6124 152.0556 216° Southwest 312 359 20,200  Level Aus ATC (RADAR)
11:36PM -31.6995 151.9826 215° Southwest 305 351 20,200  Level Aus ATC (RADAR)
11:37PM -31.7652 151.9279 215° Southwest 288 331 20,200  Level Aus ATC (RADAR)
11:38PM -31.8022 151.8959 216° Southwest 285 328 20,200  Level Aus ATC (RADAR)
11:39PM -31.8406 151.8628 216° Southwest 275 316 20,200  Level Aus ATC (RADAR)
11:39PM -31.8917 151.8205 215° Southwest 280 322 20,200  Level Aus ATC (RADAR)
11:41PM -31.9601 151.7627 216° Southwest 281 323 20,200  Level Aus ATC (RADAR)
11:42PM -32.0572 151.6809 216° Southwest 289 333 20,200  Level Aus ATC (RADAR)
11:43PM -32.1143 151.6320 216° Southwest 290 334 20,200  Level Aus ATC (RADAR)
11:44PM -32.1695 151.5848 216° Southwest 290 334 20,200  Level Aus ATC (RADAR)
11:44PM -32.2082 151.5531 215° Southwest 287 330 20,200  Level Aus ATC (RADAR)
11:45PM -32.2627 151.5065 216° Southwest 286 329 20,200  Level Aus ATC (RADAR)
11:47PM -32.3690 151.4146 216° Southwest 290 334 20,200  Level Aus ATC (RADAR)
11:48PM -32.4367 151.3585 215° Southwest 282 325 20,200  Level Aus ATC (RADAR)
11:49PM -32.4828 151.3173 217° Southwest 289 333 20,200  Level Aus ATC (RADAR)
11:49PM -32.5229 151.2835 215° Southwest 283 326 20,200  Level Aus ATC (RADAR)
11:50PM -32.5814 151.2525 204° Southwest 293 337 20,200  Level Aus ATC (RADAR)
11:52PM -32.7257 151.2494 181° South 304 350 20,200  Level Aus ATC (RADAR)
11:52PM -32.7677 151.2470 183° South 303 349 20,200 -420 Level Aus ATC (RADAR)
11:53PM -32.8545 151.2407 183° South 293 337 19,600 -720 Descending Aus ATC (RADAR)
11:54PM -32.9051 151.2386 182° South 293 337 19,000 -960 Descending Aus ATC (RADAR)
11:54PM -32.9575 151.2356 183° South 294 338 18,400 -960 Descending Aus ATC (RADAR)
11:55PM -33.0191 151.2315 183° South 291 335 17,700 -960 Descending Aus ATC (RADAR)
11:57PM -33.1207 151.2271 182° South 265 305 16,500 -1,080 Descending Aus ATC (RADAR)
11:57PM -33.1660 151.2238 183° South 263 303 15,600 -1,440 Descending Aus ATC (RADAR)
11:58PM -33.2070 151.2222 182° South 254 292 14,800 -1,380 Descending Aus ATC (RADAR)
11:58PM -33.2620 151.2194 182° South 247 284 13,800 -1,320 Descending Aus ATC (RADAR)
11:59PM -33.3281 151.2156 183° South 235 270 12,500 -1,260 Descending Aus ATC (RADAR)
12:00AM -33.3779 151.2128 183° South 236 272 11,600 -1,380 Descending Aus ATC (RADAR)
12:01AM -33.4155 151.2102 183° South 236 272 10,700 -1,320 Descending Aus ATC (RADAR)
12:02AM -33.4741 151.2075 182° South 204 235 9,600 -1,140 Descending Aus ATC (RADAR)
12:03AM -33.5321 151.2043 183° South 205 236 8,500 -1,200 Descending Aus ATC (RADAR)
12:04AM -33.5748 151.2019 183° South 201 231 7,600 -1,140 Descending Aus ATC (RADAR)
12:04AM -33.6080 151.1995 183° South 201 231 7,000 -1,020 Descending Aus ATC (RADAR)
12:05AM -33.6523 151.1972 183° South 213 245 6,300 -1,320 Descending Aus ATC (RADAR)
12:06AM -33.7150 151.1888 186° South 219 252 4,700 -1,500 Descending Aus ATC (RADAR)
12:07AM -33.7741 151.1758 190° South 211 243 3,300 -1,200 Descending Aus ATC (RADAR)
12:08AM -33.8263 151.1633 191° South 179 206 2,400 -840 Descending Aus ATC (RADAR)
12:09AM -33.8640 151.1663 176° South 167 192 1,800 -780 Descending Aus ATC (RADAR)
12:09AM -33.8885 151.1726 168° South 150 173 1,300 -780 Descending Aus ATC (RADAR)
12:10AM -33.9173 151.1803 168° South 117 135 700 -660 Descending Aus ATC (RADAR)
12:11AM -33.9458 151.1874 168° South 117 135 200 -600 Descending Aus ATC (RADAR)